Time;durP1;ratioP1;P1;durP2;ratioP2;P2;SDS_P1;SDS_P2;PMS_P1;PMS_P2;Temp;Humidity;BMP_temperature;BMP_pressure;BME280_temperature;BME280_humidity;BME280_pressure;Samples;Min_cycle;Max_cycle;Signal;HPM_P1;HPM_P2
2023/09/02 00:02:25;;;;;;;0.10;0.10;;;;;;;;;;5098741;28;20044;-44
2023/09/02 00:04:51;;;;;;;0.10;0.10;;;;;;;;;;5098109;28;20134;-44
2023/09/02 00:07:16;;;;;;;0.10;0.10;;;;;;;;;;5098632;28;20396;-44
2023/09/02 00:09:42;;;;;;;0.10;0.10;;;;;;;;;;5097991;28;20104;-44
2023/09/02 00:12:08;;;;;;;0.10;0.10;;;;;;;;;;5098422;28;20476;-44
2023/09/02 00:14:33;;;;;;;0.10;0.10;;;;;;;;;;5098655;28;20098;-44
2023/09/02 00:16:59;;;;;;;0.10;0.10;;;;;;;;;;5100180;28;20071;-44
2023/09/02 00:19:24;;;;;;;0.10;0.10;;;;;;;;;;5118305;28;20444;-44
2023/09/02 00:21:50;;;;;;;0.10;0.10;;;;;;;;;;5119361;28;20494;-43
2023/09/02 00:24:15;;;;;;;0.10;0.10;;;;;;;;;;5110081;27;20819;-44
2023/09/02 00:26:41;;;;;;;0.10;0.10;;;;;;;;;;5114438;28;20055;-45
2023/09/02 00:29:07;;;;;;;0.10;0.10;;;;;;;;;;5114111;28;20039;-44
2023/09/02 00:31:33;;;;;;;0.10;0.10;;;;;;;;;;5118288;28;20047;-44
2023/09/02 00:33:59;;;;;;;0.10;0.10;;;;;;;;;;5118654;28;20043;-44
2023/09/02 00:36:26;;;;;;;0.10;0.10;;;;;;;;;;5118642;28;20073;-45
2023/09/02 00:38:51;;;;;;;0.10;0.10;;;;;;;;;;5117635;28;20160;-43
2023/09/02 00:41:35;;;;;;;0.10;0.10;;;;;;;;;;5118249;28;20098;-44
2023/09/02 00:44:01;;;;;;;0.10;0.10;;;;;;;;;;5118577;28;20047;-44
2023/09/02 00:46:27;;;;;;;0.13;0.13;;;;;;;;;;5118609;28;20074;-44
2023/09/02 00:48:52;;;;;;;0.10;0.10;;;;;;;;;;5118077;28;20164;-44
2023/09/02 00:51:18;;;;;;;0.15;0.15;;;;;;;;;;5118406;27;20479;-44
2023/09/02 00:53:46;;;;;;;0.10;0.10;;;;;;;;;;5117285;27;20062;-43
2023/09/02 00:56:13;;;;;;;0.17;0.17;;;;;;;;;;5118117;28;20049;-44
2023/09/02 00:58:39;;;;;;;0.10;0.10;;;;;;;;;;5117940;28;20086;-43
2023/09/02 01:01:05;;;;;;;0.10;0.10;;;;;;;;;;5118160;28;20406;-43
2023/09/02 01:03:32;;;;;;;0.10;0.10;;;;;;;;;;5118325;28;20039;-44
2023/09/02 01:05:57;;;;;;;0.10;0.10;;;;;;;;;;5117498;28;20334;-44
2023/09/02 01:08:23;;;;;;;0.20;0.20;;;;;;;;;;5117675;28;20611;-44
2023/09/02 01:10:48;;;;;;;0.20;0.20;;;;;;;;;;5117684;28;20248;-44
2023/09/02 01:13:14;;;;;;;0.10;0.10;;;;;;;;;;5117977;28;20432;-44
2023/09/02 01:15:40;;;;;;;0.10;0.10;;;;;;;;;;5118230;28;20054;-44
2023/09/02 01:18:06;;;;;;;0.10;0.10;;;;;;;;;;5118207;28;20047;-44
2023/09/02 01:20:39;;;;;;;0.10;0.10;;;;;;;;;;5117694;28;20098;-44
2023/09/02 01:23:13;;;;;;;0.10;0.10;;;;;;;;;;5117022;27;20185;-44
2023/09/02 01:25:49;;;;;;;0.10;0.10;;;;;;;;;;5134395;27;20510;-44
2023/09/02 01:28:17;;;;;;;0.10;0.10;;;;;;;;;;5117910;27;20043;-44
2023/09/02 01:30:44;;;;;;;0.10;0.10;;;;;;;;;;5117871;28;20100;-43
2023/09/02 01:33:10;;;;;;;0.17;0.17;;;;;;;;;;5117930;28;20057;-44
2023/09/02 01:35:37;;;;;;;0.10;0.10;;;;;;;;;;5117764;28;20452;-43
2023/09/02 01:38:04;;;;;;;0.20;0.20;;;;;;;;;;5117715;28;20490;-43
2023/09/02 01:40:30;;;;;;;0.10;0.10;;;;;;;;;;5116924;28;20096;-44
2023/09/02 01:42:57;;;;;;;0.10;0.10;;;;;;;;;;5118096;28;20074;-43
2023/09/02 01:45:25;;;;;;;0.10;0.10;;;;;;;;;;5117789;28;20676;-44
2023/09/02 01:47:51;;;;;;;0.10;0.10;;;;;;;;;;5117566;27;20299;-43
2023/09/02 01:50:18;;;;;;;0.10;0.10;;;;;;;;;;5117753;28;21142;-44
2023/09/02 01:52:45;;;;;;;0.10;0.10;;;;;;;;;;5117532;28;20364;-44
2023/09/02 01:55:11;;;;;;;0.10;0.10;;;;;;;;;;5117619;28;20055;-43
2023/09/02 01:57:37;;;;;;;0.10;0.10;;;;;;;;;;5116427;27;20047;-44
2023/09/02 02:00:04;;;;;;;0.10;0.10;;;;;;;;;;5117176;28;20050;-44
2023/09/02 02:02:30;;;;;;;0.10;0.10;;;;;;;;;;5117857;28;20043;-44
2023/09/02 02:04:58;;;;;;;0.10;0.10;;;;;;;;;;5119605;27;20077;-44
2023/09/02 02:07:28;;;;;;;0.10;0.10;;;;;;;;;;5120773;28;20047;-44
2023/09/02 02:09:57;;;;;;;0.10;0.10;;;;;;;;;;5120827;28;20435;-44
2023/09/02 02:12:23;;;;;;;;;;;;;;;;;;5121594;28;20050;-44
2023/09/02 02:14:48;;;;;;;0.10;0.10;;;;;;;;;;5120839;28;20349;-44
2023/09/02 02:17:14;;;;;;;0.10;0.10;;;;;;;;;;5121181;28;20100;-44
2023/09/02 02:19:40;;;;;;;0.10;0.10;;;;;;;;;;5120788;28;20495;-44
2023/09/02 02:22:05;;;;;;;0.10;0.10;;;;;;;;;;5121399;27;20047;-45
2023/09/02 02:24:31;;;;;;;0.13;0.13;;;;;;;;;;5121233;28;20148;-44
2023/09/02 02:26:57;;;;;;;0.10;0.10;;;;;;;;;;5120608;28;20130;-44
2023/09/02 02:29:22;;;;;;;0.10;0.10;;;;;;;;;;5119439;28;20058;-44
2023/09/02 02:31:48;;;;;;;0.10;0.10;;;;;;;;;;5120837;28;20464;-44
2023/09/02 02:34:14;;;;;;;0.10;0.10;;;;;;;;;;5120802;27;20089;-44
2023/09/02 02:36:39;;;;;;;0.10;0.10;;;;;;;;;;5120967;28;20402;-43
2023/09/02 02:39:05;;;;;;;0.10;0.10;;;;;;;;;;5104874;28;20058;-44
2023/09/02 02:41:31;;;;;;;0.10;0.10;;;;;;;;;;5105799;28;20051;-44
2023/09/02 02:43:58;;;;;;;0.10;0.10;;;;;;;;;;5120720;27;20423;-45
2023/09/02 02:46:24;;;;;;;0.10;0.10;;;;;;;;;;5120768;28;20209;-44
2023/09/02 02:48:50;;;;;;;0.10;0.10;;;;;;;;;;5120074;28;20190;-45
2023/09/02 02:51:15;;;;;;;0.10;0.10;;;;;;;;;;5120878;28;20055;-44
2023/09/02 02:53:41;;;;;;;0.10;0.10;;;;;;;;;;5120673;28;20043;-43
2023/09/02 02:56:06;;;;;;;0.10;0.10;;;;;;;;;;5120471;27;20051;-45
2023/09/02 02:58:32;;;;;;;0.10;0.10;;;;;;;;;;5120165;27;20047;-44
2023/09/02 03:01:04;;;;;;;0.10;0.10;;;;;;;;;;5120488;28;20035;-44
2023/09/02 03:03:29;;;;;;;0.10;0.10;;;;;;;;;;5120448;28;20460;-44
2023/09/02 03:05:55;;;;;;;0.20;0.20;;;;;;;;;;5120063;28;20514;-44
2023/09/02 03:08:21;;;;;;;0.10;0.10;;;;;;;;;;5119978;28;20047;-44
2023/09/02 03:10:54;;;;;;;0.10;0.10;;;;;;;;;;5119817;28;20046;-44
2023/09/02 03:13:19;;;;;;;0.10;0.10;;;;;;;;;;5120418;28;20106;-45
2023/09/02 03:15:48;;;;;;;0.10;0.10;;;;;;;;;;5119159;27;20656;-44
2023/09/02 03:18:13;;;;;;;0.10;0.10;;;;;;;;;;5119686;28;20079;-44
2023/09/02 03:20:39;;;;;;;0.10;0.10;;;;;;;;;;5119375;28;20464;-43
2023/09/02 03:23:05;;;;;;;0.10;0.10;;;;;;;;;;5121002;27;20043;-44
2023/09/02 03:25:31;;;;;;;0.10;0.10;;;;;;;;;;5119487;28;20051;-44
2023/09/02 03:27:57;;;;;;;0.10;0.10;;;;;;;;;;5119273;28;20425;-44
2023/09/02 03:30:23;;;;;;;0.10;0.10;;;;;;;;;;5119219;28;20401;-44
2023/09/02 03:32:48;;;;;;;0.10;0.10;;;;;;;;;;5119755;28;20089;-45
2023/09/02 03:35:14;;;;;;;0.30;0.30;;;;;;;;;;5119342;28;20046;-44
2023/09/02 03:37:41;;;;;;;0.10;0.10;;;;;;;;;;5119370;28;20096;-44
2023/09/02 03:40:07;;;;;;;0.10;0.10;;;;;;;;;;5119643;27;20047;-45
2023/09/02 03:42:32;;;;;;;0.10;0.10;;;;;;;;;;5119516;28;20046;-44
2023/09/02 03:44:58;;;;;;;0.10;0.10;;;;;;;;;;5118973;28;20067;-43
2023/09/02 03:47:24;;;;;;;0.38;0.38;;;;;;;;;;5119547;28;20058;-45
2023/09/02 03:49:50;;;;;;;0.10;0.10;;;;;;;;;;5119553;28;20074;-44
2023/09/02 03:52:15;;;;;;;0.10;0.10;;;;;;;;;;5119521;28;20141;-44
2023/09/02 03:54:41;;;;;;;0.10;0.10;;;;;;;;;;5119544;28;20486;-44
2023/09/02 03:57:07;;;;;;;0.40;0.40;;;;;;;;;;5119494;28;20058;-44
2023/09/02 03:59:32;;;;;;;0.10;0.10;;;;;;;;;;5119111;28;20458;-44
2023/09/02 04:01:57;;;;;;;0.10;0.10;;;;;;;;;;5119147;28;20043;-44
2023/09/02 04:04:25;;;;;;;0.10;0.10;;;;;;;;;;5118983;28;20479;-43
2023/09/02 04:06:51;;;;;;;0.10;0.10;;;;;;;;;;5119547;28;20074;-44
2023/09/02 04:09:16;;;;;;;0.10;0.10;;;;;;;;;;5118681;28;20055;-44
2023/09/02 04:11:43;;;;;;;0.10;0.10;;;;;;;;;;5119182;28;20039;-43
2023/09/02 04:14:08;;;;;;;0.15;0.15;;;;;;;;;;5119403;28;20050;-44
2023/09/02 04:16:34;;;;;;;0.20;0.20;;;;;;;;;;5118980;28;20066;-43
2023/09/02 04:19:02;;;;;;;0.13;0.13;;;;;;;;;;5118689;28;20051;-44
2023/09/02 04:21:29;;;;;;;0.10;0.10;;;;;;;;;;5118922;27;20051;-45
2023/09/02 04:23:54;;;;;;;0.10;0.10;;;;;;;;;;5119117;28;20107;-44
2023/09/02 04:26:21;;;;;;;0.10;0.10;;;;;;;;;;5118544;28;20043;-45
2023/09/02 04:28:47;;;;;;;0.10;0.10;;;;;;;;;;5082977;27;990913;-45
2023/09/02 04:31:13;;;;;;;0.10;0.10;;;;;;;;;;5118069;27;20449;-43
2023/09/02 04:33:39;;;;;;;0.10;0.10;;;;;;;;;;5099157;27;20055;-44
2023/09/02 04:36:06;;;;;;;0.10;0.10;;;;;;;;;;5099483;28;20039;-44
2023/09/02 04:38:32;;;;;;;0.10;0.10;;;;;;;;;;5110012;27;20039;-45
2023/09/02 04:41:04;;;;;;;0.10;0.10;;;;;;;;;;5119357;27;20487;-45
2023/09/02 04:43:30;;;;;;;0.10;0.10;;;;;;;;;;5119856;27;20347;-44
2023/09/02 04:46:00;;;;;;;0.10;0.10;;;;;;;;;;5107435;27;20055;-43
2023/09/02 04:48:26;;;;;;;0.10;0.10;;;;;;;;;;5108505;27;20043;-45
2023/09/02 04:50:53;;;;;;;0.10;0.10;;;;;;;;;;5118703;27;20100;-45
2023/09/02 04:53:20;;;;;;;0.10;0.10;;;;;;;;;;5119189;27;20096;-44
2023/09/02 04:55:47;;;;;;;0.10;0.10;;;;;;;;;;5118658;27;20043;-45
2023/09/02 04:58:14;;;;;;;0.10;0.10;;;;;;;;;;5118487;27;20539;-45
2023/09/02 05:00:40;;;;;;;0.17;0.17;;;;;;;;;;5118951;27;20047;-44
2023/09/02 05:03:08;;;;;;;0.10;0.10;;;;;;;;;;5119041;27;20511;-45
2023/09/02 05:05:34;;;;;;;0.10;0.10;;;;;;;;;;5118502;27;20536;-44
2023/09/02 05:08:01;;;;;;;0.10;0.10;;;;;;;;;;5111176;27;20043;-44
2023/09/02 05:10:27;;;;;;;0.20;0.20;;;;;;;;;;5098022;28;20136;-44
2023/09/02 05:12:53;;;;;;;0.10;0.10;;;;;;;;;;5097831;28;20377;-43
2023/09/02 05:15:19;;;;;;;0.10;0.10;;;;;;;;;;5098461;28;20527;-45
2023/09/02 05:17:46;;;;;;;0.13;0.13;;;;;;;;;;5098131;27;20464;-45
2023/09/02 05:20:12;;;;;;;0.10;0.10;;;;;;;;;;5098082;28;20051;-44
2023/09/02 05:22:39;;;;;;;0.10;0.10;;;;;;;;;;5097803;28;20385;-44
2023/09/02 05:25:05;;;;;;;0.10;0.10;;;;;;;;;;5098275;28;20104;-45
2023/09/02 05:27:32;;;;;;;0.10;0.10;;;;;;;;;;5103475;28;20047;-44
2023/09/02 05:29:58;;;;;;;0.20;0.20;;;;;;;;;;5098091;28;20044;-44
2023/09/02 05:32:24;;;;;;;0.20;0.20;;;;;;;;;;5097960;28;20125;-44
2023/09/02 05:34:51;;;;;;;0.10;0.10;;;;;;;;;;5098107;28;20055;-44
2023/09/02 05:37:17;;;;;;;0.10;0.10;;;;;;;;;;5097999;28;20067;-45
2023/09/02 05:39:43;;;;;;;0.10;0.10;;;;;;;;;;5120753;27;20463;-43
2023/09/02 05:42:09;;;;;;;0.17;0.17;;;;;;;;;;5122769;27;20131;-43
2023/09/02 05:44:35;;;;;;;0.17;0.17;;;;;;;;;;5122953;27;20095;-44
2023/09/02 05:47:02;;;;;;;0.10;0.10;;;;;;;;;;5117180;27;20058;-44
2023/09/02 05:49:28;;;;;;;0.10;0.10;;;;;;;;;;5121248;27;20175;-44
2023/09/02 05:51:55;;;;;;;0.10;0.10;;;;;;;;;;5123050;27;20104;-44
2023/09/02 05:54:21;;;;;;;0.20;0.20;;;;;;;;;;5122687;27;20047;-44
2023/09/02 05:56:48;;;;;;;0.10;0.10;;;;;;;;;;5122546;27;20511;-45
2023/09/02 05:59:14;;;;;;;0.20;0.20;;;;;;;;;;5105586;27;20051;-44
2023/09/02 06:01:40;;;;;;;0.20;0.20;;;;;;;;;;5101763;28;20104;-44
2023/09/02 06:04:06;;;;;;;0.10;0.10;;;;;;;;;;5101462;28;20466;-44
2023/09/02 06:06:32;;;;;;;0.10;0.10;;;;;;;;;;5102344;27;20039;-44
2023/09/02 06:08:59;;;;;;;0.10;0.10;;;;;;;;;;5116641;27;20132;-44
2023/09/02 06:11:25;;;;;;;0.10;0.10;;;;;;;;;;5122423;27;20047;-44
2023/09/02 06:13:51;;;;;;;0.10;0.10;;;;;;;;;;5122317;27;20104;-44
2023/09/02 06:16:18;;;;;;;0.10;0.10;;;;;;;;;;5122096;27;20495;-43
2023/09/02 06:18:44;;;;;;;0.20;0.20;;;;;;;;;;5121991;27;20092;-46
2023/09/02 06:21:11;;;;;;;0.10;0.10;;;;;;;;;;5122599;27;20621;-45
2023/09/02 06:23:41;;;;;;;0.10;0.10;;;;;;;;;;5122217;27;20376;-45
2023/09/02 06:26:07;;;;;;;0.10;0.10;;;;;;;;;;5122466;27;20043;-44
2023/09/02 06:28:35;;;;;;;0.10;0.10;;;;;;;;;;5113083;27;20248;-44
2023/09/02 06:31:05;;;;;;;0.20;0.20;;;;;;;;;;5122185;27;20051;-45
2023/09/02 06:33:32;;;;;;;0.10;0.10;;;;;;;;;;5121856;27;20043;-43
2023/09/02 06:35:58;;;;;;;0.10;0.10;;;;;;;;;;5111853;27;20051;-44
2023/09/02 06:38:24;;;;;;;0.20;0.20;;;;;;;;;;5111098;27;20181;-44
2023/09/02 06:40:50;;;;;;;0.10;0.10;;;;;;;;;;5121186;27;20563;-43
2023/09/02 06:43:17;;;;;;;0.10;0.10;;;;;;;;;;5121813;27;20437;-45
2023/09/02 06:45:44;;;;;;;0.10;0.10;;;;;;;;;;5121832;27;20428;-44
2023/09/02 06:48:10;;;;;;;0.10;0.10;;;;;;;;;;5120733;27;20051;-44
2023/09/02 06:50:37;;;;;;;0.10;0.10;;;;;;;;;;5115873;27;20088;-43
2023/09/02 06:53:03;;;;;;;0.10;0.10;;;;;;;;;;5120591;27;20256;-45
2023/09/02 06:55:29;;;;;;;0.10;0.10;;;;;;;;;;5121865;27;20112;-44
2023/09/02 06:57:55;;;;;;;0.10;0.10;;;;;;;;;;5115087;27;20124;-43
2023/09/02 07:00:22;;;;;;;0.10;0.10;;;;;;;;;;5099540;28;20051;-43
2023/09/02 07:02:48;;;;;;;0.10;0.10;;;;;;;;;;5100988;28;20798;-45
2023/09/02 07:05:14;;;;;;;0.10;0.10;;;;;;;;;;5100730;28;20051;-44
2023/09/02 07:07:40;;;;;;;0.10;0.10;;;;;;;;;;5100302;27;20039;-43
2023/09/02 07:10:07;;;;;;;0.10;0.10;;;;;;;;;;5100521;28;20047;-44
2023/09/02 07:12:33;;;;;;;0.10;0.10;;;;;;;;;;5100862;28;20128;-43
2023/09/02 07:14:59;;;;;;;0.13;0.13;;;;;;;;;;5100927;28;20075;-44
2023/09/02 07:17:28;;;;;;;0.10;0.10;;;;;;;;;;5100804;28;20096;-43
2023/09/02 07:19:55;;;;;;;0.10;0.10;;;;;;;;;;5100640;28;20058;-45
2023/09/02 07:22:21;;;;;;;0.10;0.10;;;;;;;;;;5100885;28;20151;-44
2023/09/02 07:24:47;;;;;;;0.10;0.10;;;;;;;;;;5100387;28;20385;-44
2023/09/02 07:27:14;;;;;;;0.10;0.10;;;;;;;;;;5100293;28;20059;-44
2023/09/02 07:29:40;;;;;;;0.10;0.10;;;;;;;;;;5100313;28;20104;-45
2023/09/02 07:32:06;;;;;;;0.35;0.20;;;;;;;;;;5100685;27;20108;-43
2023/09/02 07:34:37;;;;;;;0.13;0.13;;;;;;;;;;5099283;28;20071;-44
2023/09/02 07:37:03;;;;;;;0.10;0.10;;;;;;;;;;5100112;27;20488;-45
2023/09/02 07:39:29;;;;;;;0.10;0.10;;;;;;;;;;5118690;27;21123;-44
2023/09/02 07:41:56;;;;;;;0.10;0.10;;;;;;;;;;5120435;27;20102;-43
2023/09/02 07:44:22;;;;;;;0.10;0.10;;;;;;;;;;5120589;27;20043;-44
2023/09/02 07:46:49;;;;;;;0.10;0.10;;;;;;;;;;5120555;27;20123;-44
2023/09/02 07:49:16;;;;;;;0.10;0.10;;;;;;;;;;5120276;27;20112;-44
2023/09/02 07:51:44;;;;;;;0.10;0.10;;;;;;;;;;5119328;27;20047;-43
2023/09/02 07:54:10;;;;;;;0.22;0.20;;;;;;;;;;5120394;27;20047;-44
2023/09/02 07:56:36;;;;;;;0.10;0.10;;;;;;;;;;5119921;27;20054;-44
2023/09/02 07:59:05;;;;;;;0.10;0.10;;;;;;;;;;5103748;27;20044;-43
2023/09/02 08:01:32;;;;;;;0.10;0.10;;;;;;;;;;5099658;28;20277;-44
2023/09/02 08:03:58;;;;;;;0.10;0.10;;;;;;;;;;5099894;28;20469;-43
2023/09/02 08:06:27;;;;;;;0.10;0.10;;;;;;;;;;5100403;28;20066;-43
2023/09/02 08:08:53;;;;;;;0.10;0.10;;;;;;;;;;5100167;28;20291;-45
2023/09/02 08:11:20;;;;;;;0.10;0.10;;;;;;;;;;5099906;28;20179;-43
2023/09/02 08:13:46;;;;;;;0.10;0.10;;;;;;;;;;5100085;28;20051;-44
2023/09/02 08:16:12;;;;;;;0.10;0.10;;;;;;;;;;5080778;28;20043;-44
2023/09/02 08:18:39;;;;;;;0.10;0.10;;;;;;;;;;5080559;28;20495;-43
2023/09/02 08:21:09;;;;;;;0.13;0.13;;;;;;;;;;5100116;28;20047;-43
2023/09/02 08:23:38;;;;;;;0.10;0.10;;;;;;;;;;5099796;28;20051;-45
2023/09/02 08:26:05;;;;;;;0.15;0.15;;;;;;;;;;5081846;28;20043;-44
2023/09/02 08:28:31;;;;;;;0.10;0.10;;;;;;;;;;5098885;28;20039;-43
2023/09/02 08:30:57;;;;;;;0.10;0.10;;;;;;;;;;5099379;28;20079;-43
2023/09/02 08:33:23;;;;;;;0.10;0.10;;;;;;;;;;5117681;27;20049;-44
2023/09/02 08:35:50;;;;;;;0.10;0.10;;;;;;;;;;5119711;27;20483;-43
2023/09/02 08:38:16;;;;;;;0.10;0.10;;;;;;;;;;5115187;27;20051;-44
2023/09/02 08:40:43;;;;;;;0.10;0.10;;;;;;;;;;5118917;27;20082;-44
2023/09/02 08:43:09;;;;;;;0.10;0.10;;;;;;;;;;5101217;27;20074;-44
2023/09/02 08:45:36;;;;;;;0.10;0.10;;;;;;;;;;5119934;27;20096;-43
2023/09/02 08:48:05;;;;;;;0.10;0.10;;;;;;;;;;5113073;27;20134;-43
2023/09/02 08:50:32;;;;;;;0.10;0.10;;;;;;;;;;5099522;28;20044;-44
2023/09/02 08:52:58;;;;;;;0.10;0.10;;;;;;;;;;5108747;27;20399;-44
2023/09/02 08:55:25;;;;;;;0.10;0.10;;;;;;;;;;5119780;27;20043;-44
2023/09/02 08:57:52;;;;;;;0.10;0.10;;;;;;;;;;5112694;27;20047;-45
2023/09/02 09:00:19;;;;;;;0.10;0.10;;;;;;;;;;5114476;27;20403;-44
2023/09/02 09:02:45;;;;;;;0.10;0.10;;;;;;;;;;5119455;27;20540;-44
2023/09/02 09:05:12;;;;;;;0.10;0.10;;;;;;;;;;5118776;27;20141;-43
2023/09/02 09:07:39;;;;;;;0.10;0.10;;;;;;;;;;5115120;27;20518;-43
2023/09/02 09:10:07;;;;;;;0.10;0.10;;;;;;;;;;5101617;27;20522;-43
2023/09/02 09:12:34;;;;;;;0.10;0.10;;;;;;;;;;5117871;27;20051;-43
2023/09/02 09:15:01;;;;;;;0.10;0.10;;;;;;;;;;5118614;27;20055;-44
2023/09/02 09:17:28;;;;;;;0.15;0.15;;;;;;;;;;5117183;27;20043;-44
2023/09/02 09:19:56;;;;;;;0.10;0.10;;;;;;;;;;5098800;28;20047;-44
2023/09/02 09:22:23;;;;;;;0.10;0.10;;;;;;;;;;5098958;28;20096;-43
2023/09/02 09:24:49;;;;;;;0.10;0.10;;;;;;;;;;5098798;28;20225;-43
2023/09/02 09:27:16;;;;;;;0.10;0.10;;;;;;;;;;5098201;28;20055;-44
2023/09/02 09:29:42;;;;;;;0.10;0.10;;;;;;;;;;5100836;27;20542;-45
2023/09/02 09:32:11;;;;;;;0.10;0.10;;;;;;;;;;5118524;28;20061;-44
2023/09/02 09:34:38;;;;;;;0.10;0.10;;;;;;;;;;5117726;28;20051;-44
2023/09/02 09:37:04;;;;;;;0.10;0.10;;;;;;;;;;5119685;28;20514;-44
2023/09/02 09:39:46;;;;;;;0.10;0.10;;;;;;;;;;5099728;28;20393;-44
2023/09/02 09:42:13;;;;;;;0.10;0.10;;;;;;;;;;5117128;28;20049;-43
2023/09/02 09:44:56;;;;;;;0.10;0.10;;;;;;;;;;5100678;28;20051;-43
2023/09/02 09:47:23;;;;;;;0.10;0.10;;;;;;;;;;5117705;28;20055;-43
2023/09/02 09:49:49;;;;;;;0.10;0.10;;;;;;;;;;5098542;28;20158;-44
2023/09/02 09:52:16;;;;;;;0.10;0.10;;;;;;;;;;5098570;28;20047;-43
2023/09/02 09:54:45;;;;;;;0.38;0.20;;;;;;;;;;5098185;28;20048;-44
2023/09/02 09:57:16;;;;;;;0.10;0.10;;;;;;;;;;5106995;28;20543;-44
2023/09/02 09:59:51;;;;;;;0.10;0.10;;;;;;;;;;5098527;28;20069;-44
2023/09/02 10:02:18;;;;;;;0.10;0.10;;;;;;;;;;5098474;28;20537;-43
2023/09/02 10:05:01;;;;;;;0.10;0.10;;;;;;;;;;5098082;28;20043;-43
2023/09/02 10:07:30;;;;;;;0.10;0.10;;;;;;;;;;5098085;28;20051;-43
2023/09/02 10:09:59;;;;;;;0.17;0.17;;;;;;;;;;5098042;28;20043;-45
2023/09/02 10:12:27;;;;;;;0.10;0.10;;;;;;;;;;5098935;28;20101;-43
2023/09/02 10:14:53;;;;;;;0.10;0.10;;;;;;;;;;5080177;28;20515;-44
2023/09/02 10:17:19;;;;;;;0.20;0.20;;;;;;;;;;5098942;28;20043;-44
2023/09/02 10:19:46;;;;;;;0.10;0.10;;;;;;;;;;5118868;28;20483;-43
2023/09/02 10:22:18;;;;;;;0.10;0.10;;;;;;;;;;5118751;28;20114;-44
2023/09/02 10:24:50;;;;;;;0.10;0.10;;;;;;;;;;5119372;27;20406;-44
2023/09/02 10:27:20;;;;;;;0.10;0.10;;;;;;;;;;5122502;27;20047;-44
2023/09/02 10:29:50;;;;;;;0.10;0.10;;;;;;;;;;5122224;27;20047;-44
2023/09/02 10:32:16;;;;;;;0.10;0.10;;;;;;;;;;5118030;27;20135;-43
2023/09/02 10:34:47;;;;;;;0.10;0.10;;;;;;;;;;5101244;28;20085;-43
2023/09/02 10:37:14;;;;;;;0.10;0.10;;;;;;;;;;5116774;27;20131;-44
2023/09/02 10:39:51;;;;;;;0.10;0.10;;;;;;;;;;5101344;28;20554;-44
2023/09/02 10:42:18;;;;;;;0.10;0.10;;;;;;;;;;5102061;27;20340;-44
2023/09/02 10:44:45;;;;;;;0.10;0.10;;;;;;;;;;5101793;28;20043;-44
2023/09/02 10:47:11;;;;;;;0.10;0.10;;;;;;;;;;5101758;28;20513;-43
2023/09/02 10:49:38;;;;;;;0.10;0.10;;;;;;;;;;5121638;27;20075;-43
2023/09/02 10:52:05;;;;;;;0.10;0.10;;;;;;;;;;5120799;27;20082;-44
2023/09/02 10:54:51;;;;;;;0.10;0.10;;;;;;;;;;5101428;27;20573;-45
2023/09/02 10:57:17;;;;;;;0.10;0.10;;;;;;;;;;5076765;28;20051;-43
2023/09/02 10:59:43;;;;;;;0.10;0.10;;;;;;;;;;5107664;27;20552;-44
2023/09/02 11:02:09;;;;;;;0.20;0.20;;;;;;;;;;5122131;27;20554;-45
2023/09/02 11:04:47;;;;;;;0.10;0.10;;;;;;;;;;5121502;27;20475;-44
2023/09/02 11:09:56;;;;;;;0.10;0.10;;;;;;;;;;5176773;27;20153;-45
2023/09/02 11:12:22;;;;;;;0.10;0.10;;;;;;;;;;5137831;27;20050;-44
2023/09/02 11:15:07;;;;;;;0.10;0.10;;;;;;;;;;5155910;27;20068;-44
2023/09/02 11:17:34;;;;;;;0.17;0.17;;;;;;;;;;5152133;27;20056;-44
2023/09/02 11:20:02;;;;;;;0.10;0.10;;;;;;;;;;5135492;27;20047;-44
2023/09/02 11:22:47;;;;;;;0.10;0.10;;;;;;;;;;5135581;27;20491;-43
2023/09/02 11:25:33;;;;;;;0.10;0.10;;;;;;;;;;5119934;27;20047;-44
2023/09/02 11:28:00;;;;;;;0.10;0.10;;;;;;;;;;5119617;27;20066;-44
2023/09/02 11:30:26;;;;;;;0.10;0.10;;;;;;;;;;5135158;27;20047;-43
2023/09/02 11:32:52;;;;;;;0.10;0.10;;;;;;;;;;5135348;27;20043;-45
2023/09/02 11:35:22;;;;;;;0.10;0.10;;;;;;;;;;5135261;27;20173;-44
2023/09/02 11:37:48;;;;;;;0.10;0.10;;;;;;;;;;5147172;27;20077;-44
2023/09/02 11:40:14;;;;;;;0.20;0.20;;;;;;;;;;5155971;27;20475;-43
2023/09/02 11:42:47;;;;;;;0.10;0.10;;;;;;;;;;5142037;27;20043;-44
2023/09/02 11:45:14;;;;;;;0.10;0.10;;;;;;;;;;5135272;27;20042;-45
2023/09/02 11:47:40;;;;;;;0.10;0.10;;;;;;;;;;5134830;27;20104;-43
2023/09/02 11:50:10;;;;;;;0.20;0.20;;;;;;;;;;5135441;27;20055;-43
2023/09/02 11:52:36;;;;;;;0.10;0.10;;;;;;;;;;5135127;27;20082;-43
2023/09/02 11:55:09;;;;;;;0.10;0.10;;;;;;;;;;5134924;27;20082;-44
2023/09/02 11:57:34;;;;;;;0.10;0.10;;;;;;;;;;5140940;27;20048;-44
2023/09/02 12:00:00;;;;;;;0.10;0.10;;;;;;;;;;5114187;28;20474;-43
2023/09/02 12:02:26;;;;;;;0.10;0.10;;;;;;;;;;5114036;28;20136;-43
2023/09/02 12:04:52;;;;;;;0.10;0.10;;;;;;;;;;5114114;28;20047;-43
2023/09/02 12:07:20;;;;;;;0.10;0.10;;;;;;;;;;5114497;27;20079;-43
2023/09/02 12:09:46;;;;;;;0.20;0.20;;;;;;;;;;5114009;28;20043;-43
2023/09/02 12:12:11;;;;;;;0.10;0.10;;;;;;;;;;5114553;28;20099;-44
2023/09/02 12:14:37;;;;;;;0.10;0.10;;;;;;;;;;5134222;27;20127;-43
2023/09/02 12:17:03;;;;;;;0.10;0.10;;;;;;;;;;5134640;27;20042;-43
2023/09/02 12:19:29;;;;;;;0.43;0.20;;;;;;;;;;5112089;27;20304;-43
2023/09/02 12:21:54;;;;;;;0.20;0.20;;;;;;;;;;5100805;28;20260;-43
2023/09/02 12:24:21;;;;;;;0.20;0.20;;;;;;;;;;5100108;28;20443;-44
2023/09/02 12:26:47;;;;;;;0.10;0.10;;;;;;;;;;5100334;28;20487;-44
2023/09/02 12:29:16;;;;;;;0.10;0.10;;;;;;;;;;5100130;28;20036;-43
2023/09/02 12:31:54;;;;;;;0.10;0.10;;;;;;;;;;5100479;27;20403;-43
2023/09/02 12:34:19;;;;;;;0.10;0.10;;;;;;;;;;5099775;28;20055;-44
2023/09/02 12:36:45;;;;;;;0.15;0.15;;;;;;;;;;5100045;28;20085;-44
2023/09/02 12:39:20;;;;;;;0.10;0.10;;;;;;;;;;5115451;28;20486;-44
2023/09/02 12:41:46;;;;;;;0.10;0.10;;;;;;;;;;5120190;27;20050;-44
2023/09/02 12:44:12;;;;;;;0.13;0.13;;;;;;;;;;5120118;28;20039;-43
2023/09/02 12:46:37;;;;;;;0.13;0.13;;;;;;;;;;5120233;28;20050;-44
2023/09/02 12:49:03;;;;;;;0.10;0.10;;;;;;;;;;5119693;28;20375;-44
2023/09/02 12:51:29;;;;;;;0.10;0.10;;;;;;;;;;5119973;28;20074;-44
2023/09/02 12:53:56;;;;;;;0.10;0.10;;;;;;;;;;5120326;28;20054;-44
2023/09/02 12:56:21;;;;;;;0.10;0.10;;;;;;;;;;5128459;27;20058;-44
2023/09/02 12:58:47;;;;;;;0.10;0.10;;;;;;;;;;5120111;28;20043;-43
2023/09/02 13:01:12;;;;;;;0.10;0.10;;;;;;;;;;5120450;28;20498;-44
2023/09/02 13:03:38;;;;;;;0.20;0.20;;;;;;;;;;5120513;28;20058;-44
2023/09/02 13:06:03;;;;;;;0.20;0.20;;;;;;;;;;5120045;28;20120;-44
2023/09/02 13:08:29;;;;;;;0.10;0.10;;;;;;;;;;5120026;28;20047;-44
2023/09/02 13:10:55;;;;;;;0.10;0.10;;;;;;;;;;5120276;28;20411;-43
2023/09/02 13:13:20;;;;;;;0.10;0.10;;;;;;;;;;5120072;28;20043;-44
2023/09/02 13:15:46;;;;;;;0.10;0.10;;;;;;;;;;5119465;28;20335;-44
2023/09/02 13:18:12;;;;;;;0.10;0.10;;;;;;;;;;5117654;28;20399;-43
2023/09/02 13:20:37;;;;;;;0.10;0.10;;;;;;;;;;5120110;27;20047;-43
2023/09/02 13:23:03;;;;;;;0.10;0.10;;;;;;;;;;5120236;27;20077;-43
2023/09/02 13:25:29;;;;;;;0.10;0.10;;;;;;;;;;5120199;27;20070;-47
2023/09/02 13:27:55;;;;;;;0.10;0.10;;;;;;;;;;5114085;27;20404;-45
2023/09/02 13:30:22;;;;;;;0.15;0.15;;;;;;;;;;5098615;28;20050;-44
2023/09/02 13:32:48;;;;;;;0.15;0.15;;;;;;;;;;5104030;27;20446;-44
2023/09/02 13:35:15;;;;;;;0.10;0.10;;;;;;;;;;5099106;28;20058;-44
2023/09/02 13:37:42;;;;;;;0.10;0.10;;;;;;;;;;5098743;28;20047;-43
2023/09/02 13:40:27;;;;;;;0.10;0.10;;;;;;;;;;5100637;28;20040;-44
2023/09/02 13:42:53;;;;;;;0.10;0.10;;;;;;;;;;5116263;28;20039;-43
2023/09/02 13:45:27;;;;;;;0.10;0.10;;;;;;;;;;5120039;28;20130;-44
2023/09/02 13:47:53;;;;;;;0.10;0.10;;;;;;;;;;5113567;27;20162;-44
2023/09/02 13:50:20;;;;;;;0.10;0.10;;;;;;;;;;5099020;28;20048;-43
2023/09/02 13:52:50;;;;;;;0.10;0.10;;;;;;;;;;5099340;28;20055;-44
2023/09/02 13:55:16;;;;;;;0.10;0.10;;;;;;;;;;5101312;27;20071;-43
2023/09/02 13:57:44;;;;;;;0.10;0.10;;;;;;;;;;5126893;27;20051;-44
2023/09/02 14:00:29;;;;;;;0.10;0.10;;;;;;;;;;5119690;28;20286;-43
2023/09/02 14:02:55;;;;;;;0.10;0.10;;;;;;;;;;5104084;28;20388;-44
2023/09/02 14:05:21;;;;;;;0.20;0.20;;;;;;;;;;5119106;28;20424;-44
2023/09/02 14:07:48;;;;;;;0.15;0.15;;;;;;;;;;5119156;28;20062;-44
2023/09/02 14:10:14;;;;;;;0.10;0.10;;;;;;;;;;5118896;28;20439;-43
2023/09/02 14:12:39;;;;;;;0.10;0.10;;;;;;;;;;5119292;28;20043;-44
2023/09/02 14:15:05;;;;;;;0.10;0.10;;;;;;;;;;5118997;28;20071;-45
2023/09/02 14:17:31;;;;;;;0.10;0.10;;;;;;;;;;5119049;28;20514;-44
2023/09/02 14:19:56;;;;;;;0.10;0.10;;;;;;;;;;5118714;28;20075;-43
2023/09/02 14:22:22;;;;;;;0.10;0.10;;;;;;;;;;5119453;27;20126;-44
2023/09/02 14:24:47;;;;;;;0.10;0.10;;;;;;;;;;5118673;27;20134;-43
2023/09/02 14:27:14;;;;;;;0.10;0.10;;;;;;;;;;5119139;27;20134;-43
2023/09/02 14:29:41;;;;;;;0.10;0.10;;;;;;;;;;5098554;28;20055;-43
2023/09/02 14:32:06;;;;;;;0.10;0.10;;;;;;;;;;5123301;27;20046;-43
2023/09/02 14:34:32;;;;;;;0.10;0.10;;;;;;;;;;5139251;27;20053;-44
2023/09/02 14:36:59;;;;;;;0.10;0.10;;;;;;;;;;5139847;27;20055;-43
2023/09/02 14:39:25;;;;;;;0.20;0.20;;;;;;;;;;5101604;27;20052;-44
2023/09/02 14:41:51;;;;;;;0.17;0.17;;;;;;;;;;5099347;28;20092;-43
2023/09/02 14:44:16;;;;;;;0.52;0.40;;;;;;;;;;5118383;27;20047;-43
2023/09/02 14:46:42;;;;;;;0.10;0.10;;;;;;;;;;5118950;27;20050;-44